sensor_id;sensor_type;location;lat;lon;timestamp;P1;durP1;ratioP1;P2;durP2;ratioP2
16228;SDS011;8222;51.462;12.630;2023-02-01T00:01:44;5.82;;;3.88;;
16228;SDS011;8222;51.462;12.630;2023-02-01T00:04:10;6.90;;;2.70;;
16228;SDS011;8222;51.462;12.630;2023-02-01T00:06:37;7.38;;;3.13;;
16228;SDS011;8222;51.462;12.630;2023-02-01T00:09:05;7.40;;;3.83;;
16228;SDS011;8222;51.462;12.630;2023-02-01T00:11:30;4.93;;;3.10;;
16228;SDS011;8222;51.462;12.630;2023-02-01T00:13:56;4.03;;;3.38;;
16228;SDS011;8222;51.462;12.630;2023-02-01T00:16:23;7.03;;;3.33;;
16228;SDS011;8222;51.462;12.630;2023-02-01T00:19:03;8.15;;;3.78;;
16228;SDS011;8222;51.462;12.630;2023-02-01T00:21:31;10.00;;;3.33;;
16228;SDS011;8222;51.462;12.630;2023-02-01T00:23:57;5.32;;;2.95;;
16228;SDS011;8222;51.462;12.630;2023-02-01T00:26:28;7.32;;;3.15;;
16228;SDS011;8222;51.462;12.630;2023-02-01T00:29:07;7.53;;;3.00;;
16228;SDS011;8222;51.462;12.630;2023-02-01T00:31:36;10.07;;;2.97;;
16228;SDS011;8222;51.462;12.630;2023-02-01T00:34:02;8.02;;;2.75;;
16228;SDS011;8222;51.462;12.630;2023-02-01T00:36:29;7.30;;;3.20;;
16228;SDS011;8222;51.462;12.630;2023-02-01T00:38:56;5.80;;;3.15;;
16228;SDS011;8222;51.462;12.630;2023-02-01T00:41:22;5.53;;;2.65;;
16228;SDS011;8222;51.462;12.630;2023-02-01T00:43:48;5.43;;;2.97;;
16228;SDS011;8222;51.462;12.630;2023-02-01T00:46:15;6.20;;;3.00;;
16228;SDS011;8222;51.462;12.630;2023-02-01T00:48:43;7.38;;;3.25;;
16228;SDS011;8222;51.462;12.630;2023-02-01T00:51:10;12.67;;;3.00;;
16228;SDS011;8222;51.462;12.630;2023-02-01T00:53:38;5.90;;;2.57;;
16228;SDS011;8222;51.462;12.630;2023-02-01T00:56:04;6.90;;;3.15;;
16228;SDS011;8222;51.462;12.630;2023-02-01T00:58:32;5.80;;;3.17;;
16228;SDS011;8222;51.462;12.630;2023-02-01T01:01:02;7.65;;;2.90;;
16228;SDS011;8222;51.462;12.630;2023-02-01T01:03:28;4.90;;;3.10;;
16228;SDS011;8222;51.462;12.630;2023-02-01T01:05:58;4.93;;;2.40;;
16228;SDS011;8222;51.462;12.630;2023-02-01T01:08:24;8.13;;;2.63;;
16228;SDS011;8222;51.462;12.630;2023-02-01T01:10:50;4.95;;;2.25;;
16228;SDS011;8222;51.462;12.630;2023-02-01T01:13:15;9.13;;;2.70;;
16228;SDS011;8222;51.462;12.630;2023-02-01T01:15:43;7.20;;;2.67;;
16228;SDS011;8222;51.462;12.630;2023-02-01T01:18:09;6.70;;;2.10;;
16228;SDS011;8222;51.462;12.630;2023-02-01T01:20:35;7.03;;;2.65;;
16228;SDS011;8222;51.462;12.630;2023-02-01T01:23:02;7.73;;;2.27;;
16228;SDS011;8222;51.462;12.630;2023-02-01T01:25:28;8.10;;;2.17;;
16228;SDS011;8222;51.462;12.630;2023-02-01T01:27:56;7.85;;;2.80;;
16228;SDS011;8222;51.462;12.630;2023-02-01T01:30:22;5.57;;;2.03;;
16228;SDS011;8222;51.462;12.630;2023-02-01T01:32:47;6.88;;;2.20;;
16228;SDS011;8222;51.462;12.630;2023-02-01T01:35:15;6.55;;;2.47;;
16228;SDS011;8222;51.462;12.630;2023-02-01T01:37:40;6.35;;;2.33;;
16228;SDS011;8222;51.462;12.630;2023-02-01T01:40:06;8.48;;;2.10;;
16228;SDS011;8222;51.462;12.630;2023-02-01T01:42:38;5.78;;;1.95;;
16228;SDS011;8222;51.462;12.630;2023-02-01T01:45:22;5.88;;;2.50;;
16228;SDS011;8222;51.462;12.630;2023-02-01T01:47:52;6.97;;;2.67;;
16228;SDS011;8222;51.462;12.630;2023-02-01T01:50:30;4.47;;;2.00;;
16228;SDS011;8222;51.462;12.630;2023-02-01T01:53:00;6.05;;;2.33;;
16228;SDS011;8222;51.462;12.630;2023-02-01T01:55:31;8.98;;;2.53;;
16228;SDS011;8222;51.462;12.630;2023-02-01T01:58:02;8.68;;;2.58;;
16228;SDS011;8222;51.462;12.630;2023-02-01T02:00:30;6.60;;;3.13;;
16228;SDS011;8222;51.462;12.630;2023-02-01T02:03:00;8.45;;;2.70;;
16228;SDS011;8222;51.462;12.630;2023-02-01T02:05:30;7.93;;;2.42;;
16228;SDS011;8222;51.462;12.630;2023-02-01T02:07:57;4.75;;;1.73;;
16228;SDS011;8222;51.462;12.630;2023-02-01T02:10:26;7.25;;;2.45;;
16228;SDS011;8222;51.462;12.630;2023-02-01T02:13:13;9.30;;;2.85;;
16228;SDS011;8222;51.462;12.630;2023-02-01T02:21:52;6.20;;;2.45;;
16228;SDS011;8222;51.462;12.630;2023-02-01T02:24:43;9.07;;;2.75;;
16228;SDS011;8222;51.462;12.630;2023-02-01T02:30:33;5.75;;;2.55;;
16228;SDS011;8222;51.462;12.630;2023-02-01T02:41:31;7.80;;;2.65;;
16228;SDS011;8222;51.462;12.630;2023-02-01T02:53:16;6.10;;;3.17;;
16228;SDS011;8222;51.462;12.630;2023-02-01T02:56:04;8.05;;;2.92;;
16228;SDS011;8222;51.462;12.630;2023-02-01T02:58:50;8.75;;;3.42;;
16228;SDS011;8222;51.462;12.630;2023-02-01T03:01:37;8.10;;;2.95;;
16228;SDS011;8222;51.462;12.630;2023-02-01T03:04:22;7.47;;;2.85;;
16228;SDS011;8222;51.462;12.630;2023-02-01T03:06:48;7.18;;;2.97;;
16228;SDS011;8222;51.462;12.630;2023-02-01T03:09:22;8.52;;;3.35;;
16228;SDS011;8222;51.462;12.630;2023-02-01T03:11:58;9.30;;;3.33;;
16228;SDS011;8222;51.462;12.630;2023-02-01T03:14:47;5.95;;;2.95;;
16228;SDS011;8222;51.462;12.630;2023-02-01T03:17:19;8.50;;;2.90;;
16228;SDS011;8222;51.462;12.630;2023-02-01T03:19:51;7.47;;;3.08;;
16228;SDS011;8222;51.462;12.630;2023-02-01T03:22:18;5.60;;;3.65;;
16228;SDS011;8222;51.462;12.630;2023-02-01T03:24:51;8.27;;;3.80;;
16228;SDS011;8222;51.462;12.630;2023-02-01T03:27:24;6.43;;;2.95;;
16228;SDS011;8222;51.462;12.630;2023-02-01T03:32:33;4.05;;;2.85;;
16228;SDS011;8222;51.462;12.630;2023-02-01T03:35:20;8.47;;;3.13;;
16228;SDS011;8222;51.462;12.630;2023-02-01T03:37:55;4.25;;;2.63;;
16228;SDS011;8222;51.462;12.630;2023-02-01T03:40:27;7.25;;;2.85;;
16228;SDS011;8222;51.462;12.630;2023-02-01T03:42:57;3.97;;;3.03;;
16228;SDS011;8222;51.462;12.630;2023-02-01T03:45:28;6.20;;;3.35;;
16228;SDS011;8222;51.462;12.630;2023-02-01T03:47:59;7.13;;;3.10;;
16228;SDS011;8222;51.462;12.630;2023-02-01T03:50:27;7.95;;;3.00;;
16228;SDS011;8222;51.462;12.630;2023-02-01T03:52:56;7.55;;;2.95;;
16228;SDS011;8222;51.462;12.630;2023-02-01T03:55:24;10.18;;;2.90;;
16228;SDS011;8222;51.462;12.630;2023-02-01T03:57:57;8.38;;;2.88;;
16228;SDS011;8222;51.462;12.630;2023-02-01T04:00:38;5.38;;;2.95;;
16228;SDS011;8222;51.462;12.630;2023-02-01T04:03:05;11.00;;;3.35;;
16228;SDS011;8222;51.462;12.630;2023-02-01T04:05:32;5.95;;;2.92;;
16228;SDS011;8222;51.462;12.630;2023-02-01T04:07:59;9.60;;;3.13;;
16228;SDS011;8222;51.462;12.630;2023-02-01T04:10:25;9.23;;;3.17;;
16228;SDS011;8222;51.462;12.630;2023-02-01T04:12:51;8.07;;;3.25;;
16228;SDS011;8222;51.462;12.630;2023-02-01T04:15:19;9.77;;;4.65;;
16228;SDS011;8222;51.462;12.630;2023-02-01T04:17:44;12.15;;;5.45;;
16228;SDS011;8222;51.462;12.630;2023-02-01T04:20:10;9.50;;;3.70;;
16228;SDS011;8222;51.462;12.630;2023-02-01T04:22:36;9.52;;;4.25;;
16228;SDS011;8222;51.462;12.630;2023-02-01T04:25:02;7.97;;;4.05;;
16228;SDS011;8222;51.462;12.630;2023-02-01T04:27:30;7.90;;;3.57;;
16228;SDS011;8222;51.462;12.630;2023-02-01T04:29:58;10.02;;;3.60;;
16228;SDS011;8222;51.462;12.630;2023-02-01T04:32:24;7.82;;;3.35;;
16228;SDS011;8222;51.462;12.630;2023-02-01T04:34:49;11.83;;;3.03;;
16228;SDS011;8222;51.462;12.630;2023-02-01T04:37:15;11.63;;;3.27;;
16228;SDS011;8222;51.462;12.630;2023-02-01T04:39:42;8.10;;;3.55;;
16228;SDS011;8222;51.462;12.630;2023-02-01T04:42:08;10.68;;;4.22;;
16228;SDS011;8222;51.462;12.630;2023-02-01T04:44:33;9.57;;;3.27;;
16228;SDS011;8222;51.462;12.630;2023-02-01T04:47:01;8.00;;;3.40;;
16228;SDS011;8222;51.462;12.630;2023-02-01T04:49:27;11.83;;;3.20;;
16228;SDS011;8222;51.462;12.630;2023-02-01T04:51:53;8.43;;;3.13;;
16228;SDS011;8222;51.462;12.630;2023-02-01T04:54:18;9.03;;;3.50;;
16228;SDS011;8222;51.462;12.630;2023-02-01T04:56:44;7.43;;;3.10;;
16228;SDS011;8222;51.462;12.630;2023-02-01T04:59:10;7.53;;;3.45;;
16228;SDS011;8222;51.462;12.630;2023-02-01T05:01:37;8.57;;;3.25;;
16228;SDS011;8222;51.462;12.630;2023-02-01T05:04:04;8.80;;;3.13;;
16228;SDS011;8222;51.462;12.630;2023-02-01T05:06:30;6.07;;;3.05;;
16228;SDS011;8222;51.462;12.630;2023-02-01T05:08:55;8.03;;;2.70;;
16228;SDS011;8222;51.462;12.630;2023-02-01T05:11:23;7.33;;;2.60;;
16228;SDS011;8222;51.462;12.630;2023-02-01T05:14:15;6.20;;;3.28;;
16228;SDS011;8222;51.462;12.630;2023-02-01T05:16:40;10.65;;;3.10;;
16228;SDS011;8222;51.462;12.630;2023-02-01T05:19:06;8.93;;;3.17;;
16228;SDS011;8222;51.462;12.630;2023-02-01T05:21:32;9.67;;;2.83;;
16228;SDS011;8222;51.462;12.630;2023-02-01T05:23:57;11.77;;;3.57;;
16228;SDS011;8222;51.462;12.630;2023-02-01T05:26:38;6.40;;;2.83;;
16228;SDS011;8222;51.462;12.630;2023-02-01T05:29:05;7.63;;;2.75;;
16228;SDS011;8222;51.462;12.630;2023-02-01T05:31:31;8.38;;;2.88;;
16228;SDS011;8222;51.462;12.630;2023-02-01T05:33:57;7.35;;;2.80;;
16228;SDS011;8222;51.462;12.630;2023-02-01T05:36:23;5.80;;;2.58;;
16228;SDS011;8222;51.462;12.630;2023-02-01T05:38:48;5.05;;;3.33;;
16228;SDS011;8222;51.462;12.630;2023-02-01T05:41:14;13.87;;;7.13;;
16228;SDS011;8222;51.462;12.630;2023-02-01T05:43:40;10.32;;;4.55;;
16228;SDS011;8222;51.462;12.630;2023-02-01T05:46:05;4.27;;;2.30;;
16228;SDS011;8222;51.462;12.630;2023-02-01T05:48:31;7.17;;;3.23;;
16228;SDS011;8222;51.462;12.630;2023-02-01T05:50:56;6.90;;;2.72;;
16228;SDS011;8222;51.462;12.630;2023-02-01T05:53:24;9.32;;;3.85;;
16228;SDS011;8222;51.462;12.630;2023-02-01T05:55:49;8.00;;;2.97;;
16228;SDS011;8222;51.462;12.630;2023-02-01T05:58:15;10.53;;;3.73;;
16228;SDS011;8222;51.462;12.630;2023-02-01T06:00:41;10.45;;;3.55;;
16228;SDS011;8222;51.462;12.630;2023-02-01T06:03:06;8.13;;;3.00;;
16228;SDS011;8222;51.462;12.630;2023-02-01T06:05:32;7.47;;;3.17;;
16228;SDS011;8222;51.462;12.630;2023-02-01T06:07:59;8.75;;;3.70;;
16228;SDS011;8222;51.462;12.630;2023-02-01T06:10:25;5.50;;;2.50;;
16228;SDS011;8222;51.462;12.630;2023-02-01T06:12:50;9.75;;;3.15;;
16228;SDS011;8222;51.462;12.630;2023-02-01T06:15:16;8.53;;;3.80;;
16228;SDS011;8222;51.462;12.630;2023-02-01T06:17:43;7.18;;;3.28;;
16228;SDS011;8222;51.462;12.630;2023-02-01T06:20:11;6.10;;;2.70;;
16228;SDS011;8222;51.462;12.630;2023-02-01T06:22:38;7.88;;;4.28;;
16228;SDS011;8222;51.462;12.630;2023-02-01T06:25:04;14.25;;;5.03;;
16228;SDS011;8222;51.462;12.630;2023-02-01T06:27:32;10.88;;;4.63;;
16228;SDS011;8222;51.462;12.630;2023-02-01T06:29:58;9.98;;;3.67;;
16228;SDS011;8222;51.462;12.630;2023-02-01T06:32:26;9.82;;;4.00;;
16228;SDS011;8222;51.462;12.630;2023-02-01T06:34:51;7.77;;;3.27;;
16228;SDS011;8222;51.462;12.630;2023-02-01T06:37:18;5.10;;;2.77;;
16228;SDS011;8222;51.462;12.630;2023-02-01T06:39:46;7.22;;;2.85;;
16228;SDS011;8222;51.462;12.630;2023-02-01T06:42:11;9.37;;;3.30;;
16228;SDS011;8222;51.462;12.630;2023-02-01T06:44:37;7.70;;;3.42;;
16228;SDS011;8222;51.462;12.630;2023-02-01T06:47:03;6.85;;;3.13;;
16228;SDS011;8222;51.462;12.630;2023-02-01T06:49:29;7.37;;;3.00;;
16228;SDS011;8222;51.462;12.630;2023-02-01T06:51:55;5.70;;;2.47;;
16228;SDS011;8222;51.462;12.630;2023-02-01T06:54:20;7.33;;;3.50;;
16228;SDS011;8222;51.462;12.630;2023-02-01T06:56:46;8.67;;;3.47;;
16228;SDS011;8222;51.462;12.630;2023-02-01T06:59:12;9.07;;;3.10;;
16228;SDS011;8222;51.462;12.630;2023-02-01T07:01:39;7.60;;;3.37;;
16228;SDS011;8222;51.462;12.630;2023-02-01T07:04:05;8.13;;;3.20;;
16228;SDS011;8222;51.462;12.630;2023-02-01T07:06:30;8.00;;;3.13;;
16228;SDS011;8222;51.462;12.630;2023-02-01T07:08:58;6.18;;;3.40;;
16228;SDS011;8222;51.462;12.630;2023-02-01T07:11:25;9.02;;;3.42;;
16228;SDS011;8222;51.462;12.630;2023-02-01T07:13:53;7.70;;;2.97;;
16228;SDS011;8222;51.462;12.630;2023-02-01T07:16:19;7.20;;;3.35;;
16228;SDS011;8222;51.462;12.630;2023-02-01T07:18:46;9.95;;;3.30;;
16228;SDS011;8222;51.462;12.630;2023-02-01T07:21:14;7.18;;;2.83;;
16228;SDS011;8222;51.462;12.630;2023-02-01T07:23:39;7.20;;;3.60;;
16228;SDS011;8222;51.462;12.630;2023-02-01T07:26:06;8.13;;;3.30;;
16228;SDS011;8222;51.462;12.630;2023-02-01T07:28:33;6.70;;;3.05;;
16228;SDS011;8222;51.462;12.630;2023-02-01T07:31:07;10.00;;;3.53;;
16228;SDS011;8222;51.462;12.630;2023-02-01T07:33:34;5.18;;;3.30;;
16228;SDS011;8222;51.462;12.630;2023-02-01T07:36:00;7.22;;;3.60;;
16228;SDS011;8222;51.462;12.630;2023-02-01T07:38:29;4.75;;;3.10;;
16228;SDS011;8222;51.462;12.630;2023-02-01T07:40:58;6.75;;;2.92;;
16228;SDS011;8222;51.462;12.630;2023-02-01T07:43:26;5.03;;;2.70;;
16228;SDS011;8222;51.462;12.630;2023-02-01T07:45:53;9.63;;;3.10;;
16228;SDS011;8222;51.462;12.630;2023-02-01T07:48:22;8.63;;;3.30;;
16228;SDS011;8222;51.462;12.630;2023-02-01T07:50:56;10.50;;;3.53;;
16228;SDS011;8222;51.462;12.630;2023-02-01T07:53:33;10.48;;;3.50;;
16228;SDS011;8222;51.462;12.630;2023-02-01T07:55:59;6.57;;;3.03;;
16228;SDS011;8222;51.462;12.630;2023-02-01T07:58:26;7.65;;;3.25;;
16228;SDS011;8222;51.462;12.630;2023-02-01T08:00:54;6.85;;;3.55;;
16228;SDS011;8222;51.462;12.630;2023-02-01T08:03:39;9.25;;;3.20;;
16228;SDS011;8222;51.462;12.630;2023-02-01T08:06:06;8.07;;;3.27;;
16228;SDS011;8222;51.462;12.630;2023-02-01T08:08:32;7.30;;;3.28;;
16228;SDS011;8222;51.462;12.630;2023-02-01T08:10:59;8.52;;;3.45;;
16228;SDS011;8222;51.462;12.630;2023-02-01T08:13:26;7.75;;;3.60;;
16228;SDS011;8222;51.462;12.630;2023-02-01T08:15:52;9.83;;;3.47;;
16228;SDS011;8222;51.462;12.630;2023-02-01T08:18:22;6.47;;;3.00;;
16228;SDS011;8222;51.462;12.630;2023-02-01T08:20:47;8.17;;;3.57;;
16228;SDS011;8222;51.462;12.630;2023-02-01T08:23:13;8.60;;;3.63;;
16228;SDS011;8222;51.462;12.630;2023-02-01T08:25:40;8.67;;;3.73;;
16228;SDS011;8222;51.462;12.630;2023-02-01T08:28:06;7.17;;;3.73;;
16228;SDS011;8222;51.462;12.630;2023-02-01T08:30:32;5.67;;;2.87;;
16228;SDS011;8222;51.462;12.630;2023-02-01T08:32:58;8.90;;;5.87;;
16228;SDS011;8222;51.462;12.630;2023-02-01T08:35:24;6.55;;;3.53;;
16228;SDS011;8222;51.462;12.630;2023-02-01T08:37:50;8.43;;;3.00;;
16228;SDS011;8222;51.462;12.630;2023-02-01T08:40:17;6.82;;;2.95;;
16228;SDS011;8222;51.462;12.630;2023-02-01T08:42:43;6.68;;;3.25;;
16228;SDS011;8222;51.462;12.630;2023-02-01T08:45:20;5.53;;;3.00;;
16228;SDS011;8222;51.462;12.630;2023-02-01T08:47:48;7.63;;;3.20;;
16228;SDS011;8222;51.462;12.630;2023-02-01T08:50:17;6.60;;;2.65;;
16228;SDS011;8222;51.462;12.630;2023-02-01T08:52:43;6.13;;;3.33;;
16228;SDS011;8222;51.462;12.630;2023-02-01T08:55:09;8.93;;;2.90;;
16228;SDS011;8222;51.462;12.630;2023-02-01T08:57:35;3.83;;;2.58;;
16228;SDS011;8222;51.462;12.630;2023-02-01T09:00:05;7.25;;;2.30;;
16228;SDS011;8222;51.462;12.630;2023-02-01T09:02:40;7.18;;;3.05;;
16228;SDS011;8222;51.462;12.630;2023-02-01T09:05:06;4.65;;;2.85;;
16228;SDS011;8222;51.462;12.630;2023-02-01T09:07:33;6.47;;;2.63;;
16228;SDS011;8222;51.462;12.630;2023-02-01T09:09:59;6.03;;;2.50;;
16228;SDS011;8222;51.462;12.630;2023-02-01T09:12:26;4.22;;;2.53;;
16228;SDS011;8222;51.462;12.630;2023-02-01T09:14:54;4.97;;;2.60;;
16228;SDS011;8222;51.462;12.630;2023-02-01T09:17:20;3.95;;;2.35;;
16228;SDS011;8222;51.462;12.630;2023-02-01T09:19:46;6.60;;;2.58;;
16228;SDS011;8222;51.462;12.630;2023-02-01T09:22:14;5.28;;;2.47;;
16228;SDS011;8222;51.462;12.630;2023-02-01T09:24:41;5.95;;;2.78;;
16228;SDS011;8222;51.462;12.630;2023-02-01T09:27:07;6.50;;;2.50;;
16228;SDS011;8222;51.462;12.630;2023-02-01T09:29:32;3.85;;;2.75;;
16228;SDS011;8222;51.462;12.630;2023-02-01T09:31:58;5.40;;;2.33;;
16228;SDS011;8222;51.462;12.630;2023-02-01T09:34:25;8.82;;;3.33;;
16228;SDS011;8222;51.462;12.630;2023-02-01T09:36:51;7.83;;;2.93;;
16228;SDS011;8222;51.462;12.630;2023-02-01T09:39:17;10.07;;;3.67;;
16228;SDS011;8222;51.462;12.630;2023-02-01T09:44:41;8.85;;;3.30;;
16228;SDS011;8222;51.462;12.630;2023-02-01T09:47:27;7.45;;;3.20;;
16228;SDS011;8222;51.462;12.630;2023-02-01T09:55:16;6.78;;;3.50;;
16228;SDS011;8222;51.462;12.630;2023-02-01T10:01:21;5.00;;;2.85;;
16228;SDS011;8222;51.462;12.630;2023-02-01T10:03:50;7.70;;;3.30;;
16228;SDS011;8222;51.462;12.630;2023-02-01T10:08:54;5.17;;;3.47;;
16228;SDS011;8222;51.462;12.630;2023-02-01T10:20:30;6.13;;;2.97;;
16228;SDS011;8222;51.462;12.630;2023-02-01T10:23:16;6.38;;;2.90;;
16228;SDS011;8222;51.462;12.630;2023-02-01T10:25:53;5.15;;;2.88;;
16228;SDS011;8222;51.462;12.630;2023-02-01T10:28:20;5.07;;;3.15;;
16228;SDS011;8222;51.462;12.630;2023-02-01T10:30:48;4.75;;;2.30;;
16228;SDS011;8222;51.462;12.630;2023-02-01T10:33:26;4.00;;;2.87;;
16228;SDS011;8222;51.462;12.630;2023-02-01T10:35:58;5.07;;;2.97;;
16228;SDS011;8222;51.462;12.630;2023-02-01T10:38:38;6.25;;;2.92;;
16228;SDS011;8222;51.462;12.630;2023-02-01T10:41:22;7.13;;;3.55;;
16228;SDS011;8222;51.462;12.630;2023-02-01T10:43:58;4.90;;;2.70;;
16228;SDS011;8222;51.462;12.630;2023-02-01T10:46:27;6.25;;;2.53;;
16228;SDS011;8222;51.462;12.630;2023-02-01T10:48:53;6.25;;;2.67;;
16228;SDS011;8222;51.462;12.630;2023-02-01T10:51:22;5.75;;;2.40;;
16228;SDS011;8222;51.462;12.630;2023-02-01T10:54:02;6.20;;;2.28;;
16228;SDS011;8222;51.462;12.630;2023-02-01T10:56:30;6.65;;;2.58;;
16228;SDS011;8222;51.462;12.630;2023-02-01T10:59:03;10.97;;;3.13;;
16228;SDS011;8222;51.462;12.630;2023-02-01T11:01:34;6.40;;;2.80;;
16228;SDS011;8222;51.462;12.630;2023-02-01T11:04:09;6.30;;;2.80;;
16228;SDS011;8222;51.462;12.630;2023-02-01T11:06:39;6.17;;;3.03;;
16228;SDS011;8222;51.462;12.630;2023-02-01T11:09:10;6.90;;;2.97;;
16228;SDS011;8222;51.462;12.630;2023-02-01T11:11:58;9.55;;;3.60;;
16228;SDS011;8222;51.462;12.630;2023-02-01T11:20:03;5.38;;;2.50;;
16228;SDS011;8222;51.462;12.630;2023-02-01T11:22:37;5.18;;;2.42;;
16228;SDS011;8222;51.462;12.630;2023-02-01T11:25:07;5.43;;;2.40;;
16228;SDS011;8222;51.462;12.630;2023-02-01T11:27:42;4.95;;;2.53;;
16228;SDS011;8222;51.462;12.630;2023-02-01T11:30:14;6.05;;;2.67;;
16228;SDS011;8222;51.462;12.630;2023-02-01T11:33:01;4.25;;;2.08;;
16228;SDS011;8222;51.462;12.630;2023-02-01T11:35:28;7.90;;;2.60;;
16228;SDS011;8222;51.462;12.630;2023-02-01T11:37:55;4.50;;;2.15;;
16228;SDS011;8222;51.462;12.630;2023-02-01T11:40:27;8.00;;;2.22;;
16228;SDS011;8222;51.462;12.630;2023-02-01T11:43:11;6.18;;;2.33;;
16228;SDS011;8222;51.462;12.630;2023-02-01T11:45:59;6.65;;;2.60;;
16228;SDS011;8222;51.462;12.630;2023-02-01T11:48:29;5.33;;;2.43;;
16228;SDS011;8222;51.462;12.630;2023-02-01T11:51:02;4.20;;;2.00;;
16228;SDS011;8222;51.462;12.630;2023-02-01T11:53:56;5.03;;;1.98;;
16228;SDS011;8222;51.462;12.630;2023-02-01T11:56:40;5.40;;;2.15;;
16228;SDS011;8222;51.462;12.630;2023-02-01T12:10:02;4.88;;;2.33;;
16228;SDS011;8222;51.462;12.630;2023-02-01T12:12:40;5.97;;;2.63;;
16228;SDS011;8222;51.462;12.630;2023-02-01T12:20:55;3.72;;;2.70;;
16228;SDS011;8222;51.462;12.630;2023-02-01T12:26:53;5.25;;;2.25;;
16228;SDS011;8222;51.462;12.630;2023-02-01T12:29:53;6.40;;;2.40;;
16228;SDS011;8222;51.462;12.630;2023-02-01T12:43:57;5.50;;;2.67;;
16228;SDS011;8222;51.462;12.630;2023-02-01T12:46:40;6.07;;;2.97;;
16228;SDS011;8222;51.462;12.630;2023-02-01T12:49:13;5.80;;;3.30;;
16228;SDS011;8222;51.462;12.630;2023-02-01T12:51:45;5.80;;;2.70;;
16228;SDS011;8222;51.462;12.630;2023-02-01T12:54:21;7.53;;;2.85;;
16228;SDS011;8222;51.462;12.630;2023-02-01T12:56:57;7.60;;;2.72;;
16228;SDS011;8222;51.462;12.630;2023-02-01T13:02:40;5.77;;;2.90;;
16228;SDS011;8222;51.462;12.630;2023-02-01T13:05:14;6.53;;;2.60;;
16228;SDS011;8222;51.462;12.630;2023-02-01T13:10:42;6.13;;;2.85;;
16228;SDS011;8222;51.462;12.630;2023-02-01T13:13:32;7.70;;;3.07;;
16228;SDS011;8222;51.462;12.630;2023-02-01T13:18:41;8.73;;;2.97;;
16228;SDS011;8222;51.462;12.630;2023-02-01T13:21:17;5.55;;;2.85;;
16228;SDS011;8222;51.462;12.630;2023-02-01T13:23:48;6.78;;;2.42;;
16228;SDS011;8222;51.462;12.630;2023-02-01T13:26:16;3.13;;;2.35;;
16228;SDS011;8222;51.462;12.630;2023-02-01T13:33:56;7.05;;;2.28;;
16228;SDS011;8222;51.462;12.630;2023-02-01T13:36:45;6.38;;;2.53;;
16228;SDS011;8222;51.462;12.630;2023-02-01T13:42:23;5.35;;;2.25;;
16228;SDS011;8222;51.462;12.630;2023-02-01T13:45:23;6.70;;;3.05;;
16228;SDS011;8222;51.462;12.630;2023-02-01T13:47:54;5.13;;;2.30;;
16228;SDS011;8222;51.462;12.630;2023-02-01T13:50:25;6.18;;;2.42;;
16228;SDS011;8222;51.462;12.630;2023-02-01T13:53:01;5.95;;;3.15;;
16228;SDS011;8222;51.462;12.630;2023-02-01T13:55:31;6.53;;;2.73;;
16228;SDS011;8222;51.462;12.630;2023-02-01T13:58:03;5.53;;;2.10;;
16228;SDS011;8222;51.462;12.630;2023-02-01T14:00:36;6.73;;;2.60;;
16228;SDS011;8222;51.462;12.630;2023-02-01T14:13:35;5.05;;;2.30;;
16228;SDS011;8222;51.462;12.630;2023-02-01T14:23:47;4.05;;;2.40;;
16228;SDS011;8222;51.462;12.630;2023-02-01T14:26:24;12.55;;;7.88;;
16228;SDS011;8222;51.462;12.630;2023-02-01T14:31:41;5.78;;;2.35;;
16228;SDS011;8222;51.462;12.630;2023-02-01T14:37:08;4.50;;;2.30;;
16228;SDS011;8222;51.462;12.630;2023-02-01T14:42:14;6.35;;;2.53;;
16228;SDS011;8222;51.462;12.630;2023-02-01T14:44:53;4.95;;;2.90;;
16228;SDS011;8222;51.462;12.630;2023-02-01T14:52:49;5.43;;;3.20;;
16228;SDS011;8222;51.462;12.630;2023-02-01T14:55:31;4.70;;;3.25;;
16228;SDS011;8222;51.462;12.630;2023-02-01T15:08:54;7.45;;;3.05;;
16228;SDS011;8222;51.462;12.630;2023-02-01T15:14:41;6.53;;;3.17;;
16228;SDS011;8222;51.462;12.630;2023-02-01T15:17:29;6.10;;;3.20;;
16228;SDS011;8222;51.462;12.630;2023-02-01T15:20:13;5.45;;;2.60;;
16228;SDS011;8222;51.462;12.630;2023-02-01T15:22:41;6.53;;;2.70;;
16228;SDS011;8222;51.462;12.630;2023-02-01T15:25:20;7.57;;;2.97;;
16228;SDS011;8222;51.462;12.630;2023-02-01T15:27:47;5.43;;;3.05;;
16228;SDS011;8222;51.462;12.630;2023-02-01T15:30:17;4.07;;;2.40;;
16228;SDS011;8222;51.462;12.630;2023-02-01T15:32:46;12.25;;;3.63;;
16228;SDS011;8222;51.462;12.630;2023-02-01T15:35:35;6.47;;;2.90;;
16228;SDS011;8222;51.462;12.630;2023-02-01T15:46:21;6.33;;;3.37;;
16228;SDS011;8222;51.462;12.630;2023-02-01T15:48:55;4.05;;;2.78;;
16228;SDS011;8222;51.462;12.630;2023-02-01T15:51:22;3.93;;;2.03;;
16228;SDS011;8222;51.462;12.630;2023-02-01T15:53:57;3.50;;;2.20;;
16228;SDS011;8222;51.462;12.630;2023-02-01T15:56:37;4.03;;;2.27;;
16228;SDS011;8222;51.462;12.630;2023-02-01T15:59:06;5.70;;;2.92;;
16228;SDS011;8222;51.462;12.630;2023-02-01T16:01:40;3.40;;;2.50;;
16228;SDS011;8222;51.462;12.630;2023-02-01T16:09:20;3.20;;;1.58;;
16228;SDS011;8222;51.462;12.630;2023-02-01T16:14:17;0.85;;;0.80;;
16228;SDS011;8222;51.462;12.630;2023-02-01T16:16:42;0.52;;;0.50;;
16228;SDS011;8222;51.462;12.630;2023-02-01T16:19:08;1.13;;;0.50;;
16228;SDS011;8222;51.462;12.630;2023-02-01T16:21:34;1.40;;;0.53;;
16228;SDS011;8222;51.462;12.630;2023-02-01T16:24:00;0.83;;;0.37;;
16228;SDS011;8222;51.462;12.630;2023-02-01T16:26:32;0.73;;;0.43;;
16228;SDS011;8222;51.462;12.630;2023-02-01T16:28:59;1.10;;;0.68;;
16228;SDS011;8222;51.462;12.630;2023-02-01T16:31:30;1.08;;;0.50;;
16228;SDS011;8222;51.462;12.630;2023-02-01T16:33:56;1.67;;;0.85;;
16228;SDS011;8222;51.462;12.630;2023-02-01T16:36:24;0.47;;;0.47;;
16228;SDS011;8222;51.462;12.630;2023-02-01T16:38:51;0.90;;;0.50;;
16228;SDS011;8222;51.462;12.630;2023-02-01T16:41:18;1.70;;;0.50;;
16228;SDS011;8222;51.462;12.630;2023-02-01T16:43:48;0.47;;;0.45;;
16228;SDS011;8222;51.462;12.630;2023-02-01T16:46:17;0.57;;;0.50;;
16228;SDS011;8222;51.462;12.630;2023-02-01T16:48:47;2.00;;;0.60;;
16228;SDS011;8222;51.462;12.630;2023-02-01T16:51:16;0.33;;;0.33;;
16228;SDS011;8222;51.462;12.630;2023-02-01T16:53:44;1.10;;;0.63;;
16228;SDS011;8222;51.462;12.630;2023-02-01T16:56:17;1.13;;;0.43;;
16228;SDS011;8222;51.462;12.630;2023-02-01T16:58:45;0.57;;;0.57;;
16228;SDS011;8222;51.462;12.630;2023-02-01T17:01:15;1.55;;;0.80;;
16228;SDS011;8222;51.462;12.630;2023-02-01T17:03:43;1.60;;;0.60;;
16228;SDS011;8222;51.462;12.630;2023-02-01T17:06:12;1.50;;;0.57;;
16228;SDS011;8222;51.462;12.630;2023-02-01T17:08:41;1.33;;;0.70;;
16228;SDS011;8222;51.462;12.630;2023-02-01T17:11:09;1.48;;;0.68;;
16228;SDS011;8222;51.462;12.630;2023-02-01T17:13:38;1.80;;;0.73;;
16228;SDS011;8222;51.462;12.630;2023-02-01T17:16:10;1.58;;;0.73;;
16228;SDS011;8222;51.462;12.630;2023-02-01T17:18:44;1.65;;;0.85;;
16228;SDS011;8222;51.462;12.630;2023-02-01T17:21:15;5.47;;;1.63;;
16228;SDS011;8222;51.462;12.630;2023-02-01T17:23:41;4.10;;;2.22;;
16228;SDS011;8222;51.462;12.630;2023-02-01T17:26:10;2.75;;;1.00;;
16228;SDS011;8222;51.462;12.630;2023-02-01T17:28:35;6.70;;;1.00;;
16228;SDS011;8222;51.462;12.630;2023-02-01T17:31:01;1.27;;;0.80;;
16228;SDS011;8222;51.462;12.630;2023-02-01T17:33:31;2.35;;;0.88;;
16228;SDS011;8222;51.462;12.630;2023-02-01T17:36:00;2.63;;;0.67;;
16228;SDS011;8222;51.462;12.630;2023-02-01T17:38:27;3.67;;;0.97;;
16228;SDS011;8222;51.462;12.630;2023-02-01T17:40:55;0.87;;;0.63;;
16228;SDS011;8222;51.462;12.630;2023-02-01T17:43:22;2.60;;;0.97;;
16228;SDS011;8222;51.462;12.630;2023-02-01T17:45:52;0.80;;;0.80;;
16228;SDS011;8222;51.462;12.630;2023-02-01T17:48:22;4.25;;;1.38;;
16228;SDS011;8222;51.462;12.630;2023-02-01T17:50:49;3.00;;;0.90;;
16228;SDS011;8222;51.462;12.630;2023-02-01T17:53:18;2.97;;;0.95;;